createdAt,value
2018-01-27T00:01:24.361Z,101443.25
2018-01-27T00:03:51.844Z,101436.98
2018-01-27T00:06:19.289Z,101438.48
2018-01-27T00:08:46.989Z,101441.57
2018-01-27T00:11:14.438Z,101440.77
2018-01-27T00:13:54.769Z,101447.27
2018-01-27T00:16:22.213Z,101450.16
2018-01-27T00:18:49.659Z,101451.66
2018-01-27T00:21:17.123Z,101451.50
2018-01-27T00:23:44.573Z,101457.10
2018-01-27T00:26:12.182Z,101458.87
2018-01-27T00:28:39.633Z,101459.86
2018-01-27T00:31:07.079Z,101459.06
2018-01-27T00:33:34.551Z,101462.84
2018-01-27T00:36:01.993Z,101463.23
2018-01-27T00:38:29.684Z,101471.64
2018-01-27T00:40:57.217Z,101473.96
2018-01-27T00:43:24.845Z,101483.52
2018-01-27T00:45:52.308Z,101491.44
2018-01-27T00:48:19.773Z,101491.59
2018-01-27T00:50:47.377Z,101483.48
2018-01-27T00:53:14.829Z,101479.47
2018-01-27T00:55:42.285Z,101484.87
2018-01-27T00:58:09.783Z,101485.97
2018-01-27T01:00:37.241Z,101480.91
2018-01-27T01:03:04.951Z,101477.47
2018-01-27T01:05:32.396Z,101474.67
2018-01-27T01:07:59.848Z,101484.78
2018-01-27T01:10:27.319Z,101493.27
2018-01-27T01:12:54.770Z,101492.45
2018-01-27T01:15:22.293Z,101495.28
2018-01-27T01:17:49.757Z,101486.44
2018-01-27T01:20:17.249Z,101495.69
2018-01-27T01:22:45.022Z,101496.76
2018-01-27T01:25:12.465Z,101497.20
2018-01-27T01:27:39.932Z,101499.00
2018-01-27T01:30:07.382Z,101503.66
2018-01-27T01:32:34.829Z,101507.13
2018-01-27T01:35:02.333Z,101515.63
2018-01-27T01:37:29.780Z,101524.36
2018-01-27T01:39:57.284Z,101518.89
2018-01-27T01:42:30.200Z,101524.83
2018-01-27T01:44:57.668Z,101527.89
2018-01-27T01:47:25.978Z,101529.88
2018-01-27T01:49:53.453Z,101533.21
2018-01-27T01:52:20.917Z,101532.03
2018-01-27T01:54:48.361Z,101533.80
2018-01-27T01:57:15.957Z,101540.23
2018-01-27T01:59:43.397Z,101541.69
2018-01-27T02:02:10.836Z,101540.00
2018-01-27T02:04:38.316Z,101546.30
2018-01-27T02:07:05.771Z,101546.56
2018-01-27T02:09:33.452Z,101552.06
2018-01-27T02:12:00.901Z,101553.67
2018-01-27T02:14:28.344Z,101566.27
2018-01-27T02:16:55.844Z,101562.87
2018-01-27T02:19:23.298Z,101564.27
2018-01-27T02:21:50.932Z,101556.04
2018-01-27T02:24:18.377Z,101559.59
2018-01-27T02:26:45.817Z,101564.05
2018-01-27T02:29:13.293Z,101568.34
2018-01-27T02:31:40.763Z,101568.18
2018-01-27T02:34:08.261Z,101576.06
2018-01-27T02:36:35.700Z,101581.92
2018-01-27T02:39:03.193Z,101578.66
2018-01-27T02:41:30.668Z,101581.66
2018-01-27T02:43:58.112Z,101591.38
2018-01-27T02:46:25.580Z,101596.96
2018-01-27T02:48:53.041Z,101596.33
2018-01-27T02:51:20.509Z,101594.48
2018-01-27T02:53:47.964Z,101594.05
2018-01-27T02:56:15.421Z,101586.30
2018-01-27T02:58:42.888Z,101594.31
2018-01-27T03:01:10.340Z,101591.72
2018-01-27T03:03:37.784Z,101597.11
2018-01-27T03:06:05.264Z,101604.39
2018-01-27T03:08:32.708Z,101612.39
2018-01-27T03:11:00.393Z,101616.02
2018-01-27T03:13:27.845Z,101616.95
2018-01-27T03:15:55.300Z,101618.52
2018-01-27T03:18:22.769Z,101629.97
2018-01-27T03:20:50.218Z,101630.20
2018-01-27T03:23:17.852Z,101637.56
2018-01-27T03:25:45.294Z,101644.08
2018-01-27T03:28:12.760Z,101651.01
2018-01-27T03:30:40.253Z,101645.93
2018-01-27T03:33:07.717Z,101647.53
2018-01-27T03:35:35.453Z,101647.66
2018-01-27T03:38:02.902Z,101647.37
2018-01-27T03:40:30.344Z,101650.48
2018-01-27T03:42:58.544Z,101666.80
2018-01-27T03:45:25.989Z,101663.11
2018-01-27T03:47:53.650Z,101662.02
2018-01-27T03:50:21.092Z,101660.71
2018-01-27T03:52:48.541Z,101659.95
2018-01-27T03:55:16.225Z,101663.85
2018-01-27T03:57:43.666Z,101662.62
2018-01-27T04:00:11.344Z,101670.56
2018-01-27T04:02:38.798Z,101673.16
2018-01-27T04:05:06.240Z,101679.73
2018-01-27T04:07:33.713Z,101682.48
2018-01-27T04:10:01.169Z,101690.25
2018-01-27T04:12:29.037Z,101684.28
2018-01-27T04:14:56.476Z,101689.11
2018-01-27T04:17:23.920Z,101691.69
2018-01-27T04:19:51.390Z,101694.06
2018-01-27T04:22:18.833Z,101695.90
2018-01-27T04:24:46.317Z,101695.27
2018-01-27T04:27:13.768Z,101697.96
2018-01-27T04:29:41.221Z,101698.42
2018-01-27T04:32:08.799Z,101703.67
2018-01-27T04:34:36.253Z,101711.61
2018-01-27T04:37:04.009Z,101712.32
2018-01-27T04:39:31.465Z,101707.55
2018-01-27T04:41:58.933Z,101713.09
2018-01-27T04:44:26.404Z,101712.17
2018-01-27T04:46:53.852Z,101708.32
2018-01-27T04:49:21.712Z,101706.86
2018-01-27T04:51:49.176Z,101713.12
2018-01-27T04:54:16.632Z,101719.20
2018-01-27T04:56:46.267Z,101725.46
2018-01-27T04:59:13.737Z,101728.51
2018-01-27T05:01:41.557Z,101720.31
2018-01-27T05:04:09.024Z,101725.02
2018-01-27T05:06:36.468Z,101729.98
2018-01-27T05:09:04.568Z,101733.23
2018-01-27T05:11:32.097Z,101734.09
2018-01-27T05:13:59.717Z,101744.72
2018-01-27T05:16:27.372Z,101745.97
2018-01-27T05:18:54.815Z,101747.66
2018-01-27T05:21:22.956Z,101750.21
2018-01-27T05:23:50.396Z,101757.17
2018-01-27T05:26:18.053Z,101764.67
2018-01-27T05:28:45.667Z,101771.73
2018-01-27T05:31:13.101Z,101769.36
2018-01-27T05:33:40.778Z,101766.31
2018-01-27T05:36:08.220Z,101762.02
2018-01-27T05:38:35.929Z,101765.17
2018-01-27T05:41:03.384Z,101767.17
2018-01-27T05:43:30.828Z,101770.55
2018-01-27T05:45:58.683Z,101770.17
2018-01-27T05:48:26.143Z,101772.36
2018-01-27T05:50:53.747Z,101777.17
2018-01-27T05:53:21.195Z,101781.83
2018-01-27T05:55:48.717Z,101782.17
2018-01-27T05:58:16.180Z,101786.22
2018-01-27T06:00:43.628Z,101788.30
2018-01-27T06:03:11.437Z,101794.25
2018-01-27T06:05:38.898Z,101807.45
2018-01-27T06:08:06.353Z,101812.13
2018-01-27T06:10:33.816Z,101811.94
2018-01-27T06:13:01.268Z,101815.72
2018-01-27T06:15:28.737Z,101817.56
2018-01-27T06:17:56.177Z,101818.64
2018-01-27T06:20:23.622Z,101825.33
2018-01-27T06:22:51.093Z,101825.70
2018-01-27T06:25:18.537Z,101831.95
2018-01-27T06:27:46.201Z,101838.36
2018-01-27T06:30:13.645Z,101845.19
2018-01-27T06:32:41.080Z,101846.87
2018-01-27T06:35:08.540Z,101857.94
2018-01-27T06:37:36.017Z,101866.66
2018-01-27T06:40:03.489Z,101867.66
2018-01-27T06:42:30.956Z,101861.25
2018-01-27T06:44:58.399Z,101865.79
2018-01-27T06:47:25.869Z,101871.97
2018-01-27T06:49:53.314Z,101867.80
2018-01-27T06:52:20.980Z,101875.73
2018-01-27T06:54:48.417Z,101879.86
2018-01-27T06:57:15.886Z,101881.23
2018-01-27T06:59:43.357Z,101889.78
2018-01-27T07:02:11.048Z,101888.93
2018-01-27T07:04:38.664Z,101893.21
2018-01-27T07:07:06.104Z,101902.96
2018-01-27T07:09:33.712Z,101913.09
2018-01-27T07:12:01.186Z,101907.31
2018-01-27T07:14:28.636Z,101915.44
2018-01-27T07:16:56.120Z,101910.73
2018-01-27T07:19:23.568Z,101914.16
2018-01-27T07:21:51.028Z,101914.11
2018-01-27T07:24:18.613Z,101912.68
2018-01-27T07:26:46.065Z,101908.68
2018-01-27T07:29:13.862Z,101912.14
2018-01-27T07:31:41.332Z,101914.19
2018-01-27T07:34:08.789Z,101921.31
2018-01-27T07:36:36.254Z,101920.82
2018-01-27T07:39:03.708Z,101929.78
2018-01-27T07:41:31.477Z,101937.58
2018-01-27T07:43:58.945Z,101934.08
2018-01-27T07:46:26.393Z,101932.67
2018-01-27T07:48:53.857Z,101945.28
2018-01-27T07:51:21.324Z,101941.25
2018-01-27T07:53:48.905Z,101948.59
2018-01-27T07:56:16.353Z,101954.18
2018-01-27T07:58:43.796Z,101957.38
2018-01-27T08:01:11.256Z,101962.45
2018-01-27T08:03:39.678Z,101957.45
2018-01-27T08:06:07.437Z,101962.67
2018-01-27T08:08:34.890Z,101965.37
2018-01-27T08:11:02.332Z,101977.03
2018-01-27T08:13:29.833Z,101974.84
2018-01-27T08:15:57.299Z,101983.77
2018-01-27T08:18:24.885Z,101990.53
2018-01-27T08:20:52.341Z,101985.16
2018-01-27T08:23:19.792Z,101978.38
2018-01-27T08:25:47.328Z,101978.94
2018-01-27T08:28:14.773Z,101982.58
2018-01-27T08:30:42.408Z,101988.45
2018-01-27T08:33:10.057Z,101990.66
2018-01-27T08:35:37.509Z,101995.70
2018-01-27T08:38:07.652Z,101995.30
2018-01-27T08:40:35.104Z,101992.75
2018-01-27T08:43:02.763Z,101999.41
2018-01-27T08:45:30.220Z,102002.23
2018-01-27T08:47:57.731Z,102010.13
2018-01-27T08:50:25.208Z,102011.00
2018-01-27T08:52:52.653Z,102017.75
2018-01-27T08:55:20.202Z,102017.24
2018-01-27T08:57:47.648Z,102023.76
2018-01-27T09:00:15.109Z,102019.31
2018-01-27T09:02:42.929Z,102018.83
2018-01-27T09:05:10.372Z,102017.52
2018-01-27T09:07:37.855Z,102014.70
2018-01-27T09:10:05.305Z,102013.17
2018-01-27T09:12:32.753Z,102017.73
2018-01-27T09:15:00.365Z,102025.81
2018-01-27T09:17:27.828Z,102023.49
2018-01-27T09:19:55.456Z,102027.69
2018-01-27T09:22:23.028Z,102035.17
2018-01-27T09:24:50.545Z,102036.56
2018-01-27T09:27:18.272Z,102045.88
2018-01-27T09:29:45.717Z,102036.50
2018-01-27T09:32:13.452Z,102033.06
2018-01-27T09:34:40.900Z,102029.63
2018-01-27T09:37:08.353Z,102040.88
2018-01-27T09:39:36.241Z,102048.62
2018-01-27T09:42:03.706Z,102052.84
2018-01-27T09:44:31.477Z,102062.91
2018-01-27T09:46:58.922Z,102063.86
2018-01-27T09:49:26.404Z,102065.32
2018-01-27T09:51:54.568Z,102069.70
2018-01-27T09:54:22.008Z,102075.20
2018-01-27T09:56:49.637Z,102078.66
2018-01-27T09:59:17.094Z,102076.56
2018-01-27T10:01:44.546Z,102069.34
2018-01-27T10:04:12.050Z,102080.29
2018-01-27T10:06:39.532Z,102094.17
2018-01-27T10:09:07.117Z,102093.65
2018-01-27T10:11:34.632Z,102096.45
2018-01-27T10:14:02.081Z,102090.48
2018-01-27T10:16:29.569Z,102085.73
2018-01-27T10:18:57.013Z,102085.27
2018-01-27T10:21:24.818Z,102089.48
2018-01-27T10:23:52.280Z,102082.48
2018-01-27T10:26:19.934Z,102091.20
2018-01-27T10:28:47.697Z,102090.39
2018-01-27T10:31:15.137Z,102081.86
2018-01-27T10:33:42.768Z,102070.15
2018-01-27T10:36:10.228Z,102069.66
2018-01-27T10:38:37.756Z,102069.19
2018-01-27T10:41:05.249Z,102063.06
2018-01-27T10:43:32.701Z,102067.53
2018-01-27T10:46:00.409Z,102055.28
2018-01-27T10:48:27.852Z,102059.93
2018-01-27T10:50:55.299Z,102055.67
2018-01-27T10:53:22.772Z,102059.08
2018-01-27T10:55:50.254Z,102048.17
2018-01-27T10:58:17.990Z,102045.45
2018-01-27T11:00:48.245Z,102043.98
2018-01-27T11:03:15.688Z,102038.66
2018-01-27T11:05:43.233Z,102038.28
2018-01-27T11:08:10.681Z,102040.00
2018-01-27T11:10:38.357Z,102040.33
2018-01-27T11:13:05.805Z,102038.30
2018-01-27T11:15:33.275Z,102039.41
2018-01-27T11:18:00.788Z,102037.44
2018-01-27T11:20:28.232Z,102028.80
2018-01-27T11:22:55.935Z,102026.12
2018-01-27T11:25:23.377Z,102022.25
2018-01-27T11:27:51.130Z,102022.75
2018-01-27T11:30:20.735Z,102018.86
2018-01-27T11:32:48.204Z,102017.86
2018-01-27T11:35:15.756Z,102018.97
2018-01-27T11:37:43.193Z,102019.39
2018-01-27T11:40:10.669Z,102020.81
2018-01-27T11:42:38.133Z,102028.06
2018-01-27T11:45:05.581Z,102017.11
2018-01-27T11:47:33.060Z,102014.31
2018-01-27T11:50:00.501Z,102014.65
2018-01-27T11:52:27.981Z,102020.94
2018-01-27T11:54:55.514Z,102028.12
2018-01-27T11:57:22.964Z,102032.54
2018-01-27T11:59:50.672Z,102031.11
2018-01-27T12:02:18.121Z,102037.55
2018-01-27T12:04:45.585Z,102046.45
2018-01-27T12:07:13.086Z,102045.36
2018-01-27T12:09:40.533Z,102041.67
2018-01-27T12:12:08.088Z,102049.86
2018-01-27T12:14:35.533Z,102058.19
2018-01-27T12:17:02.977Z,102060.68
2018-01-27T12:19:30.445Z,102064.36
2018-01-27T12:21:57.889Z,102059.52
2018-01-27T12:24:25.516Z,102047.39
2018-01-27T12:26:52.962Z,102051.08
2018-01-27T12:29:20.476Z,102045.94
2018-01-27T12:31:47.957Z,102037.33
2018-01-27T12:34:15.405Z,102031.14
2018-01-27T12:36:42.897Z,102029.45
2018-01-27T12:39:10.448Z,102024.75
2018-01-27T12:41:37.893Z,102041.67
2018-01-27T12:44:05.365Z,102037.26
2018-01-27T12:46:32.805Z,102037.72
2018-01-27T12:49:00.254Z,102040.13
2018-01-27T12:51:27.724Z,102044.80
2018-01-27T12:53:55.168Z,102044.72
2018-01-27T12:56:22.613Z,102042.72
2018-01-27T12:58:50.101Z,102041.20
2018-01-27T13:01:17.545Z,102031.98
2018-01-27T13:03:44.989Z,102030.94
2018-01-27T13:06:12.469Z,102031.72
2018-01-27T13:08:39.916Z,102035.15
2018-01-27T13:11:07.445Z,102038.48
2018-01-27T13:13:34.949Z,102036.68
2018-01-27T13:16:02.397Z,102036.63
2018-01-27T13:18:29.859Z,102034.55
2018-01-27T13:20:57.345Z,102026.81
2018-01-27T13:23:24.797Z,102023.91
2018-01-27T13:25:52.333Z,102025.70
2018-01-27T13:28:20.179Z,102025.69
2018-01-27T13:30:47.649Z,102014.77
2018-01-27T13:33:15.125Z,102019.34
2018-01-27T13:35:42.700Z,102009.66
2018-01-27T13:38:10.150Z,102012.83
2018-01-27T13:40:37.596Z,102012.59
2018-01-27T13:43:05.353Z,102020.06
2018-01-27T13:45:32.828Z,102016.33
2018-01-27T13:48:00.273Z,102013.91
2018-01-27T13:50:27.749Z,102008.96
2018-01-27T13:52:55.221Z,102008.08
2018-01-27T13:55:22.693Z,102007.38
2018-01-27T13:57:50.304Z,102002.73
2018-01-27T14:00:17.784Z,102008.78
2018-01-27T14:02:45.232Z,102006.68
2018-01-27T14:05:12.876Z,102014.23
2018-01-27T14:07:40.384Z,102008.97
2018-01-27T14:10:07.825Z,102019.91
2018-01-27T14:12:35.760Z,102021.52
2018-01-27T14:15:03.209Z,102019.28
2018-01-27T14:17:30.657Z,102009.38
2018-01-27T14:19:58.694Z,102007.81
2018-01-27T14:22:26.145Z,102010.14
2018-01-27T14:24:53.592Z,102009.37
2018-01-27T14:27:21.068Z,102005.52
2018-01-27T14:29:48.519Z,102003.66
2018-01-27T14:32:16.002Z,101998.38
2018-01-27T14:34:43.635Z,101992.13
2018-01-27T14:37:11.086Z,101994.06
2018-01-27T14:39:38.570Z,101996.03
2018-01-27T14:42:06.360Z,102000.84
2018-01-27T14:44:33.830Z,102005.82
2018-01-27T14:47:01.291Z,102006.92
2018-01-27T14:49:28.764Z,102014.62
2018-01-27T14:51:56.210Z,102008.70
2018-01-27T14:54:23.677Z,102021.82
2018-01-27T14:56:51.406Z,102035.74
2018-01-27T14:59:18.871Z,102042.01
2018-01-27T15:01:46.323Z,102043.03
2018-01-27T15:04:13.945Z,102048.73
2018-01-27T15:06:41.428Z,102042.47
2018-01-27T15:09:08.892Z,102043.81
2018-01-27T15:11:36.410Z,102046.02
2018-01-27T15:14:03.869Z,102041.46
2018-01-27T15:16:31.316Z,102041.83
2018-01-27T15:18:58.789Z,102044.53
2018-01-27T15:21:26.260Z,102050.20
2018-01-27T15:23:54.152Z,102057.14
2018-01-27T15:26:21.597Z,102057.83
2018-01-27T15:28:49.054Z,102069.14
2018-01-27T15:31:16.540Z,102075.67
2018-01-27T15:33:44.005Z,102082.77
2018-01-27T15:36:11.482Z,102092.45
2018-01-27T15:38:38.941Z,102093.19
2018-01-27T15:41:06.410Z,102097.69
2018-01-27T15:43:33.899Z,102094.95
2018-01-27T15:46:01.376Z,102100.85
2018-01-27T15:48:29.190Z,102102.16
2018-01-27T15:50:56.638Z,102111.09
2018-01-27T15:53:24.089Z,102116.86
2018-01-27T15:55:52.207Z,102123.79
2018-01-27T15:58:19.722Z,102121.55
2018-01-27T16:00:47.322Z,102119.11
2018-01-27T16:03:14.802Z,102114.56
2018-01-27T16:05:42.285Z,102107.59
2018-01-27T16:08:09.953Z,102104.55
2018-01-27T16:10:37.440Z,102096.23
2018-01-27T16:13:04.924Z,102087.34
2018-01-27T16:15:32.369Z,102091.78
2018-01-27T16:17:59.817Z,102084.55
2018-01-27T16:20:27.313Z,102085.59
2018-01-27T16:22:54.760Z,102072.86
2018-01-27T16:25:22.252Z,102063.75
2018-01-27T16:27:49.702Z,102068.08
2018-01-27T16:30:17.181Z,102064.66
2018-01-27T16:32:44.676Z,102066.03
2018-01-27T16:35:12.122Z,102069.98
2018-01-27T16:37:39.632Z,102066.02
2018-01-27T16:40:07.078Z,102075.08
2018-01-27T16:42:34.528Z,102082.16
2018-01-27T16:45:02.105Z,102085.39
2018-01-27T16:47:29.554Z,102088.14
2018-01-27T16:49:57.036Z,102090.72
2018-01-27T16:52:24.484Z,102093.94
2018-01-27T16:54:51.933Z,102095.25
2018-01-27T16:57:19.425Z,102093.03
2018-01-27T16:59:46.896Z,102092.45
2018-01-27T17:02:14.365Z,102086.88
2018-01-27T17:04:41.841Z,102089.02
2018-01-27T17:07:09.288Z,102087.75
2018-01-27T17:09:36.801Z,102099.50
2018-01-27T17:12:04.256Z,102097.48
2018-01-27T17:14:31.747Z,102109.03
2018-01-27T17:16:59.225Z,102113.33
2018-01-27T17:19:26.681Z,102117.20
2018-01-27T17:21:54.154Z,102120.61
2018-01-27T17:24:22.211Z,102123.29
2018-01-27T17:26:49.891Z,102120.41
2018-01-27T17:29:17.357Z,102124.61
2018-01-27T17:31:44.837Z,102126.39
2018-01-27T17:34:12.314Z,102135.23
2018-01-27T17:36:40.953Z,102126.65
2018-01-27T17:39:09.087Z,102139.27
2018-01-27T17:41:36.986Z,102138.74
2018-01-27T17:44:04.643Z,102148.61
2018-01-27T17:46:32.263Z,102145.59
2018-01-27T17:48:59.783Z,102151.23
2018-01-27T17:51:27.657Z,102154.53
2018-01-27T17:53:55.307Z,102147.91
2018-01-27T17:56:23.107Z,102150.17
2018-01-27T17:58:50.769Z,102147.25
2018-01-27T18:01:18.613Z,102153.01
2018-01-27T18:03:46.151Z,102138.52
2018-01-27T18:06:13.788Z,102135.31
2018-01-27T18:08:41.235Z,102128.34
2018-01-27T18:11:08.720Z,102123.88
2018-01-27T18:13:36.176Z,102127.28
2018-01-27T18:16:03.712Z,102136.62
2018-01-27T18:18:31.184Z,102132.50
2018-01-27T18:20:58.654Z,102135.96
2018-01-27T18:23:26.124Z,102136.38
2018-01-27T18:25:53.929Z,102135.76
2018-01-27T18:28:21.613Z,102138.91
2018-01-27T18:30:49.057Z,102135.84
2018-01-27T18:33:16.500Z,102131.39
2018-01-27T18:35:43.996Z,102122.00
2018-01-27T18:38:11.447Z,102116.03
2018-01-27T18:40:39.070Z,102113.52
2018-01-27T18:43:07.121Z,102112.91
2018-01-27T18:45:34.753Z,102118.31
2018-01-27T18:48:02.286Z,102111.70
2018-01-27T18:50:29.737Z,102115.74
2018-01-27T18:52:57.233Z,102113.75
2018-01-27T18:55:24.679Z,102113.85
2018-01-27T18:57:52.126Z,102112.73
2018-01-27T19:00:19.614Z,102104.40
2018-01-27T19:02:47.056Z,102109.09
2018-01-27T19:05:14.649Z,102109.59
2018-01-27T19:07:42.887Z,102109.94
2018-01-27T19:10:10.344Z,102117.30
2018-01-27T19:12:37.814Z,102128.51
2018-01-27T19:15:05.249Z,102132.72
2018-01-27T19:17:32.729Z,102130.56
2018-01-27T19:20:00.169Z,102122.74
2018-01-27T19:22:27.709Z,102127.73
2018-01-27T19:24:55.173Z,102123.28
2018-01-27T19:27:22.661Z,102114.44
2018-01-27T19:29:50.153Z,102094.84
2018-01-27T19:32:17.600Z,102088.08
2018-01-27T19:34:45.065Z,102084.97
2018-01-27T19:37:12.540Z,102095.94
2018-01-27T19:39:39.985Z,102106.22
2018-01-27T19:42:07.528Z,102115.10
2018-01-27T19:44:34.977Z,102113.34
2018-01-27T19:47:02.422Z,102115.70
2018-01-27T19:49:29.888Z,102115.60
2018-01-27T19:51:57.336Z,102111.02
2018-01-27T19:54:25.006Z,102113.52
2018-01-27T19:56:52.458Z,102125.77
2018-01-27T19:59:19.901Z,102131.16
2018-01-27T20:01:47.364Z,102117.41
2018-01-27T20:04:14.808Z,102100.24
2018-01-27T20:06:42.493Z,102102.39
2018-01-27T20:09:09.958Z,102103.17
2018-01-27T20:11:37.407Z,102104.56
2018-01-27T20:14:04.873Z,102098.58
2018-01-27T20:16:32.318Z,102092.52
2018-01-27T20:18:59.977Z,102097.02
2018-01-27T20:21:27.425Z,102100.55
2018-01-27T20:23:54.885Z,102097.52
2018-01-27T20:26:22.356Z,102098.33
2018-01-27T20:28:49.806Z,102101.09
2018-01-27T20:31:17.276Z,102100.70
2018-01-27T20:33:44.721Z,102094.22
2018-01-27T20:36:12.195Z,102093.09
2018-01-27T20:38:39.695Z,102094.79
2018-01-27T20:41:07.144Z,102087.61
2018-01-27T20:43:34.852Z,102088.92
2018-01-27T20:46:02.312Z,102089.16
2018-01-27T20:48:29.764Z,102084.38
2018-01-27T20:50:57.229Z,102075.20
2018-01-27T20:53:24.679Z,102073.91
2018-01-27T20:55:52.197Z,102071.31
2018-01-27T20:58:19.642Z,102069.61
2018-01-27T21:00:47.095Z,102059.92
2018-01-27T21:03:14.569Z,102064.78
2018-01-27T21:05:42.025Z,102064.25
2018-01-27T21:08:09.616Z,102068.84
2018-01-27T21:10:38.968Z,102066.08
2018-01-27T21:13:06.480Z,102068.83
2018-01-27T21:15:33.945Z,102063.58
2018-01-27T21:18:01.393Z,102065.47
2018-01-27T21:20:28.872Z,102066.10
2018-01-27T21:22:56.984Z,102066.64
2018-01-27T21:25:24.460Z,102069.63
2018-01-27T21:27:51.964Z,102067.23
2018-01-27T21:30:19.413Z,102061.83
2018-01-27T21:32:46.905Z,102055.61
2018-01-27T21:35:14.403Z,102051.95
2018-01-27T21:37:41.849Z,102042.64
2018-01-27T21:40:09.317Z,102047.59
2018-01-27T21:42:36.768Z,102046.55
2018-01-27T21:45:04.453Z,102044.84
2018-01-27T21:47:31.914Z,102043.63
2018-01-27T21:49:59.364Z,102052.27
2018-01-27T21:52:26.838Z,102049.98
2018-01-27T21:54:54.285Z,102046.31
2018-01-27T21:57:21.777Z,102049.95
2018-01-27T21:59:49.236Z,102054.98
2018-01-27T22:02:16.698Z,102060.03
2018-01-27T22:04:44.181Z,102061.57
2018-01-27T22:07:11.629Z,102059.36
2018-01-27T22:09:39.142Z,102058.30
2018-01-27T22:12:06.677Z,102055.53
2018-01-27T22:14:34.129Z,102066.77
2018-01-27T22:17:01.593Z,102075.17
2018-01-27T22:19:29.044Z,102071.85
2018-01-27T22:21:56.532Z,102057.22
2018-01-27T22:24:23.976Z,102061.83
2018-01-27T22:26:51.421Z,102058.46
2018-01-27T22:29:18.896Z,102059.08
2018-01-27T22:31:46.367Z,102055.27
2018-01-27T22:34:13.940Z,102055.95
2018-01-27T22:36:41.388Z,102065.17
2018-01-27T22:39:08.840Z,102067.95
2018-01-27T22:41:36.308Z,102072.12
2018-01-27T22:44:03.757Z,102060.45
2018-01-27T22:46:31.565Z,102058.74
2018-01-27T22:48:59.008Z,102047.56
2018-01-27T22:51:26.452Z,102044.28
2018-01-27T22:53:53.942Z,102044.48
2018-01-27T22:56:21.389Z,102057.05
2018-01-27T22:58:49.357Z,102066.63
2018-01-27T23:01:20.692Z,102071.98
2018-01-27T23:03:48.137Z,102073.83
2018-01-27T23:06:15.602Z,102073.13
2018-01-27T23:08:43.073Z,102068.45
2018-01-27T23:11:12.679Z,102062.52
2018-01-27T23:13:40.193Z,102061.78
2018-01-27T23:16:07.638Z,102061.78
2018-01-27T23:18:35.106Z,102072.86
2018-01-27T23:21:02.540Z,102074.13
2018-01-27T23:23:30.016Z,102079.05
2018-01-27T23:25:57.453Z,102074.56
2018-01-27T23:28:24.893Z,102084.36
2018-01-27T23:30:52.366Z,102075.88
2018-01-27T23:33:19.825Z,102075.20
2018-01-27T23:35:47.308Z,102075.67
2018-01-27T23:38:14.780Z,102071.33
2018-01-27T23:40:42.220Z,102075.52
2018-01-27T23:43:09.684Z,102068.82
2018-01-27T23:45:37.140Z,102073.44
2018-01-27T23:48:04.617Z,102059.48
2018-01-27T23:50:32.291Z,102063.46
2018-01-27T23:52:59.777Z,102067.86
2018-01-27T23:55:27.260Z,102055.88
2018-01-27T23:57:54.697Z,102062.89
